createdAt,value
2023-05-06T00:01:18.313Z,5.40
2023-05-06T00:04:22.182Z,5.60
2023-05-06T00:07:25.517Z,5.07
2023-05-06T00:10:28.636Z,5.47
2023-05-06T00:13:32.163Z,4.70
2023-05-06T00:16:35.582Z,5.07
2023-05-06T00:19:39.024Z,5.15
2023-05-06T00:22:44.685Z,5.07
2023-05-06T00:25:47.720Z,5.05
2023-05-06T00:28:50.736Z,5.07
2023-05-06T00:31:54.119Z,4.93
2023-05-06T00:34:57.176Z,5.60
2023-05-06T00:38:15.424Z,5.17
2023-05-06T00:41:18.909Z,5.80
2023-05-06T00:44:22.207Z,5.68
2023-05-06T00:47:25.528Z,6.53
2023-05-06T00:50:29.893Z,5.75
2023-05-06T00:53:33.769Z,5.47
2023-05-06T00:56:37.279Z,5.25
2023-05-06T00:59:40.883Z,6.05
2023-05-06T01:02:47.770Z,5.18
2023-05-06T01:06:07.864Z,5.13
2023-05-06T01:09:26.109Z,6.07
2023-05-06T01:12:47.906Z,5.13
2023-05-06T01:15:55.040Z,6.10
2023-05-06T01:19:06.237Z,6.43
2023-05-06T01:22:11.707Z,6.00
2023-05-06T01:25:19.474Z,5.93
2023-05-06T01:28:22.458Z,5.35
2023-05-06T01:31:45.638Z,5.97
2023-05-06T01:35:13.550Z,6.30
2023-05-06T01:38:27.451Z,5.78
2023-05-06T01:41:34.857Z,5.90
2023-05-06T01:44:39.566Z,5.45
2023-05-06T01:47:42.918Z,5.47
2023-05-06T01:50:46.080Z,6.05
2023-05-06T01:53:49.042Z,6.35
2023-05-06T01:56:52.334Z,5.43
2023-05-06T01:59:55.713Z,5.75
2023-05-06T02:03:00.572Z,5.57
2023-05-06T02:06:04.862Z,6.38
2023-05-06T02:09:13.044Z,6.03
2023-05-06T02:12:20.306Z,5.60
2023-05-06T02:15:23.454Z,5.20
2023-05-06T02:18:26.375Z,5.68
2023-05-06T02:21:29.598Z,5.30
2023-05-06T02:24:33.098Z,5.78
2023-05-06T02:27:36.338Z,6.07
2023-05-06T02:30:39.577Z,5.97
2023-05-06T02:33:43.470Z,5.70
2023-05-06T02:36:47.543Z,5.95
2023-05-06T02:39:51.833Z,6.10
2023-05-06T02:42:55.107Z,5.93
2023-05-06T02:45:58.147Z,5.65
2023-05-06T02:49:02.184Z,5.82
2023-05-06T02:52:06.074Z,4.97
2023-05-06T02:55:09.314Z,5.90
2023-05-06T02:58:12.348Z,5.80
2023-05-06T03:01:16.000Z,5.53
2023-05-06T03:04:19.795Z,5.65
2023-05-06T03:07:22.956Z,5.45
2023-05-06T03:10:26.412Z,6.88
2023-05-06T03:13:30.719Z,6.07
2023-05-06T03:16:34.120Z,5.93
2023-05-06T03:19:37.258Z,5.55
2023-05-06T03:22:42.565Z,5.75
2023-05-06T03:25:46.644Z,6.28
2023-05-06T03:28:50.566Z,5.67
2023-05-06T03:31:57.172Z,5.30
2023-05-06T03:35:02.259Z,6.28
2023-05-06T03:38:05.773Z,4.63
2023-05-06T03:41:19.082Z,5.35
2023-05-06T03:44:22.177Z,6.43
2023-05-06T03:47:25.449Z,5.13
2023-05-06T03:50:28.753Z,6.05
2023-05-06T03:53:31.887Z,5.15
2023-05-06T03:56:36.224Z,5.40
2023-05-06T03:59:40.369Z,5.30
2023-05-06T04:02:43.854Z,5.22
2023-05-06T04:05:54.512Z,5.55
2023-05-06T04:09:01.826Z,5.40
2023-05-06T04:12:05.723Z,5.07
2023-05-06T04:15:10.974Z,6.03
2023-05-06T04:18:19.182Z,5.80
2023-05-06T04:21:31.419Z,5.95
2023-05-06T04:24:41.771Z,6.03
2023-05-06T04:27:47.179Z,5.10
2023-05-06T04:30:50.382Z,4.60
2023-05-06T04:33:55.422Z,5.10
2023-05-06T04:37:00.919Z,5.13
2023-05-06T04:40:13.976Z,5.03
2023-05-06T04:43:22.003Z,5.72
2023-05-06T04:46:29.877Z,5.90
2023-05-06T04:49:33.589Z,5.60
2023-05-06T04:52:37.796Z,5.75
2023-05-06T04:55:41.959Z,6.40
2023-05-06T04:58:45.734Z,6.60
2023-05-06T05:01:49.241Z,6.63
2023-05-06T05:04:52.318Z,5.88
2023-05-06T05:07:56.660Z,5.40
2023-05-06T05:11:02.457Z,5.68
2023-05-06T05:14:07.026Z,6.30
2023-05-06T05:17:10.558Z,6.97
2023-05-06T05:20:15.570Z,6.85
2023-05-06T05:23:19.016Z,6.95
2023-05-06T05:26:22.079Z,10.13
2023-05-06T05:29:28.314Z,10.55
2023-05-06T05:32:31.907Z,9.07
2023-05-06T05:35:35.037Z,10.02
2023-05-06T05:38:39.249Z,9.07
2023-05-06T05:41:42.720Z,8.52
2023-05-06T05:44:46.364Z,9.77
2023-05-06T05:47:49.655Z,7.93
2023-05-06T05:50:53.996Z,9.18
2023-05-06T05:53:57.405Z,9.25
2023-05-06T05:57:02.644Z,9.95
2023-05-06T06:00:07.958Z,9.65
2023-05-06T06:03:20.149Z,8.63
2023-05-06T06:06:24.542Z,9.95
2023-05-06T06:09:28.505Z,9.30
2023-05-06T06:12:32.255Z,8.90
2023-05-06T06:15:36.260Z,9.43
2023-05-06T06:18:39.585Z,7.90
2023-05-06T06:21:43.121Z,9.40
2023-05-06T06:24:46.668Z,8.90
2023-05-06T06:27:49.948Z,8.07
2023-05-06T06:30:53.044Z,9.20
2023-05-06T06:33:56.204Z,8.93
2023-05-06T06:36:59.615Z,8.30
2023-05-06T06:40:02.819Z,8.52
2023-05-06T06:43:05.843Z,8.30
2023-05-06T06:46:27.785Z,8.23
2023-05-06T06:49:31.425Z,7.63
2023-05-06T06:52:35.650Z,7.05
2023-05-06T06:55:41.633Z,6.55
2023-05-06T06:58:44.879Z,7.13
2023-05-06T07:01:48.144Z,7.43
2023-05-06T07:04:51.288Z,6.73
2023-05-06T07:07:55.588Z,6.90
2023-05-06T07:10:58.829Z,7.05
2023-05-06T07:14:02.112Z,6.47
2023-05-06T07:17:05.381Z,6.50
2023-05-06T07:20:09.184Z,6.40
2023-05-06T07:23:12.382Z,6.13
2023-05-06T07:26:15.671Z,6.00
2023-05-06T07:29:18.904Z,6.28
2023-05-06T07:32:22.500Z,5.32
2023-05-06T07:35:25.909Z,6.03
2023-05-06T07:38:29.075Z,6.03
2023-05-06T07:41:32.319Z,6.80
2023-05-06T07:44:37.216Z,6.40
2023-05-06T07:47:41.133Z,6.22
2023-05-06T07:50:44.636Z,6.57
2023-05-06T07:53:47.909Z,6.82
2023-05-06T07:56:53.734Z,7.32
2023-05-06T07:59:58.666Z,6.32
2023-05-06T08:03:01.812Z,6.78
2023-05-06T08:06:05.670Z,6.73
2023-05-06T08:09:09.369Z,6.20
2023-05-06T08:12:15.910Z,8.52
2023-05-06T08:15:19.434Z,7.80
2023-05-06T08:18:23.485Z,6.85
2023-05-06T08:21:26.644Z,6.30
2023-05-06T08:24:30.130Z,7.10
2023-05-06T08:27:33.108Z,6.88
2023-05-06T08:30:36.969Z,7.50
2023-05-06T08:33:40.286Z,7.00
2023-05-06T08:36:43.598Z,6.57
2023-05-06T08:39:46.667Z,6.85
2023-05-06T08:42:50.753Z,7.95
2023-05-06T08:45:54.870Z,7.07
2023-05-06T08:48:59.209Z,7.32
2023-05-06T08:52:05.919Z,7.30
2023-05-06T08:55:10.414Z,7.20
2023-05-06T08:58:15.870Z,7.50
2023-05-06T09:01:22.359Z,6.47
2023-05-06T09:04:26.177Z,6.15
2023-05-06T09:07:29.412Z,5.83
2023-05-06T09:10:38.377Z,5.93
2023-05-06T09:13:42.436Z,5.97
2023-05-06T09:16:48.050Z,5.07
2023-05-06T09:19:57.141Z,4.75
2023-05-06T09:23:01.709Z,5.17
2023-05-06T09:26:06.246Z,4.43
2023-05-06T09:29:09.756Z,4.35
2023-05-06T09:32:14.886Z,3.60
2023-05-06T09:35:18.249Z,4.05
2023-05-06T09:38:21.973Z,3.60
2023-05-06T09:41:25.855Z,3.50
2023-05-06T09:44:29.441Z,4.35
2023-05-06T09:47:36.223Z,4.45
2023-05-06T09:50:39.768Z,4.15
2023-05-06T09:53:44.565Z,3.93
2023-05-06T09:56:48.389Z,3.67
2023-05-06T09:59:55.362Z,3.90
2023-05-06T10:02:59.472Z,3.97
2023-05-06T10:06:05.443Z,3.97
2023-05-06T10:09:09.797Z,3.87
2023-05-06T10:12:14.000Z,3.70
2023-05-06T10:15:17.340Z,3.15
2023-05-06T10:18:22.027Z,3.35
2023-05-06T10:21:28.042Z,3.30
2023-05-06T10:24:37.044Z,3.10
2023-05-06T10:27:42.050Z,3.13
2023-05-06T10:30:46.404Z,3.13
2023-05-06T10:33:52.902Z,3.45
2023-05-06T10:36:59.364Z,4.45
2023-05-06T10:40:04.920Z,5.13
2023-05-06T10:43:31.056Z,3.88
2023-05-06T10:46:58.778Z,4.70
2023-05-06T10:50:21.678Z,3.95
2023-05-06T10:54:04.751Z,3.75
2023-05-06T10:57:09.965Z,3.80
2023-05-06T11:00:13.635Z,4.63
2023-05-06T11:03:19.032Z,4.82
2023-05-06T11:06:36.872Z,4.70
2023-05-06T11:10:05.661Z,3.38
2023-05-06T11:13:40.956Z,4.10
2023-05-06T11:16:48.912Z,4.13
2023-05-06T11:20:18.208Z,3.58
2023-05-06T11:23:21.274Z,3.33
2023-05-06T11:26:24.701Z,3.75
2023-05-06T11:29:27.946Z,4.10
2023-05-06T11:32:33.259Z,3.20
2023-05-06T11:35:40.065Z,3.63
2023-05-06T11:38:48.204Z,3.35
2023-05-06T11:41:53.063Z,3.95
2023-05-06T11:45:00.672Z,3.80
2023-05-06T11:48:04.054Z,4.13
2023-05-06T11:51:08.329Z,3.38
2023-05-06T11:54:12.125Z,3.60
2023-05-06T11:57:15.832Z,3.95
2023-05-06T12:00:20.747Z,3.73
2023-05-06T12:03:25.194Z,3.50
2023-05-06T12:06:36.187Z,3.42
2023-05-06T12:09:48.299Z,3.03
2023-05-06T12:12:51.878Z,3.10
2023-05-06T12:15:56.240Z,3.07
2023-05-06T12:18:59.278Z,3.00
2023-05-06T12:22:22.612Z,3.38
2023-05-06T12:25:25.936Z,2.50
2023-05-06T12:28:29.624Z,3.63
2023-05-06T12:31:33.040Z,3.30
2023-05-06T12:34:40.336Z,3.25
2023-05-06T12:37:43.342Z,3.72
2023-05-06T12:40:54.271Z,4.05
2023-05-06T12:44:00.416Z,4.30
2023-05-06T12:47:22.306Z,4.23
2023-05-06T12:50:36.179Z,3.40
2023-05-06T12:53:39.855Z,3.15
2023-05-06T12:56:45.085Z,2.75
2023-05-06T12:59:49.391Z,3.60
2023-05-06T13:02:55.767Z,2.80
2023-05-06T13:05:59.417Z,3.15
2023-05-06T13:09:02.742Z,2.90
2023-05-06T13:12:07.477Z,3.20
2023-05-06T13:15:10.893Z,3.15
2023-05-06T13:18:13.800Z,2.67
2023-05-06T13:21:17.007Z,2.63
2023-05-06T13:24:20.006Z,3.10
2023-05-06T13:27:23.799Z,2.90
2023-05-06T13:30:27.070Z,2.90
2023-05-06T13:33:30.314Z,3.13
2023-05-06T13:36:33.169Z,2.67
2023-05-06T13:39:36.254Z,3.00
2023-05-06T13:42:39.754Z,3.00
2023-05-06T13:45:44.902Z,3.08
2023-05-06T13:48:48.208Z,3.00
2023-05-06T13:51:51.812Z,2.78
2023-05-06T13:54:54.896Z,2.60
2023-05-06T13:57:58.052Z,2.75
2023-05-06T14:01:01.365Z,2.80
2023-05-06T14:04:05.121Z,2.60
2023-05-06T14:07:08.416Z,2.53
2023-05-06T14:10:12.122Z,2.60
2023-05-06T14:13:15.264Z,2.72
2023-05-06T14:16:18.682Z,2.90
2023-05-06T14:19:24.321Z,2.63
2023-05-06T14:22:30.703Z,2.83
2023-05-06T14:25:34.144Z,2.58
2023-05-06T14:28:37.420Z,2.75
2023-05-06T14:31:40.607Z,2.97
2023-05-06T14:34:43.874Z,2.80
2023-05-06T14:37:47.227Z,2.58
2023-05-06T14:40:53.088Z,2.88
2023-05-06T14:43:56.111Z,3.13
2023-05-06T14:46:58.984Z,3.90
2023-05-06T14:50:02.053Z,5.40
2023-05-06T14:53:05.355Z,6.03
2023-05-06T14:56:10.621Z,5.05
2023-05-06T14:59:14.134Z,4.68
2023-05-06T15:02:17.288Z,4.70
2023-05-06T15:05:20.435Z,5.03
2023-05-06T15:08:23.877Z,4.85
2023-05-06T15:11:27.124Z,4.28
2023-05-06T15:14:30.278Z,4.28
2023-05-06T15:17:33.609Z,3.80
2023-05-06T15:20:37.137Z,4.20
2023-05-06T15:23:40.194Z,4.38
2023-05-06T15:26:43.497Z,4.32
2023-05-06T15:29:46.633Z,3.70
2023-05-06T15:32:50.110Z,3.83
2023-05-06T15:35:53.490Z,3.90
2023-05-06T15:38:59.887Z,3.45
2023-05-06T15:42:04.416Z,3.80
2023-05-06T15:45:08.222Z,4.18
2023-05-06T15:48:11.461Z,3.88
2023-05-06T15:51:14.898Z,3.80
2023-05-06T15:54:21.287Z,3.70
2023-05-06T15:57:24.577Z,3.95
2023-05-06T16:00:28.178Z,3.33
2023-05-06T16:03:34.028Z,3.67
2023-05-06T16:06:37.262Z,3.80
2023-05-06T16:09:40.454Z,4.15
2023-05-06T16:12:43.476Z,4.10
2023-05-06T16:15:47.427Z,3.58
2023-05-06T16:18:50.474Z,3.97
2023-05-06T16:21:53.491Z,3.77
2023-05-06T16:24:57.627Z,4.32
2023-05-06T16:28:00.955Z,4.30
2023-05-06T16:31:03.926Z,4.15
2023-05-06T16:34:07.059Z,4.55
2023-05-06T16:37:10.151Z,4.80
2023-05-06T16:40:14.447Z,4.97
2023-05-06T16:43:19.014Z,4.93
2023-05-06T16:46:24.295Z,5.43
2023-05-06T16:49:28.210Z,4.72
2023-05-06T16:52:31.307Z,4.47
2023-05-06T16:55:34.673Z,5.18
2023-05-06T16:58:43.021Z,4.72
2023-05-06T17:01:45.998Z,4.55
2023-05-06T17:04:49.390Z,4.53
2023-05-06T17:07:52.607Z,4.30
2023-05-06T17:10:55.691Z,4.55
2023-05-06T17:13:58.949Z,4.68
2023-05-06T17:17:04.322Z,4.75
2023-05-06T17:20:08.401Z,4.93
2023-05-06T17:23:11.942Z,4.63
2023-05-06T17:26:17.933Z,5.13
2023-05-06T17:29:22.358Z,4.63
2023-05-06T17:32:26.275Z,5.20
2023-05-06T17:35:29.596Z,5.30
2023-05-06T17:38:32.918Z,4.67
2023-05-06T17:41:36.591Z,5.63
2023-05-06T17:44:42.828Z,5.25
2023-05-06T17:47:46.050Z,5.90
2023-05-06T17:50:49.192Z,6.82
2023-05-06T17:53:52.318Z,8.00
2023-05-06T17:56:55.318Z,7.55
2023-05-06T17:59:58.409Z,8.18
2023-05-06T18:03:01.658Z,9.73
2023-05-06T18:06:04.779Z,9.23
2023-05-06T18:09:08.512Z,9.17
2023-05-06T18:12:11.491Z,10.48
2023-05-06T18:15:14.687Z,10.52
2023-05-06T18:18:17.861Z,11.00
2023-05-06T18:21:21.237Z,10.68
2023-05-06T18:24:24.061Z,10.07
2023-05-06T18:27:27.227Z,8.90
2023-05-06T18:30:30.577Z,9.50
2023-05-06T18:33:33.934Z,8.88
2023-05-06T18:36:37.091Z,8.88
2023-05-06T18:39:41.826Z,8.50
2023-05-06T18:42:47.697Z,9.23
2023-05-06T18:45:52.297Z,10.20
2023-05-06T18:48:56.171Z,12.65
2023-05-06T18:52:05.552Z,12.52
2023-05-06T18:55:11.297Z,10.07
2023-05-06T18:58:16.276Z,8.25
2023-05-06T19:01:19.154Z,7.00
2023-05-06T19:04:22.108Z,6.70
2023-05-06T19:07:25.088Z,6.72
2023-05-06T19:10:28.682Z,7.13
2023-05-06T19:13:31.863Z,6.13
2023-05-06T19:16:37.573Z,6.75
2023-05-06T19:19:41.216Z,5.57
2023-05-06T19:22:44.472Z,5.50
2023-05-06T19:25:47.925Z,4.77
2023-05-06T19:28:50.844Z,5.60
2023-05-06T19:31:54.608Z,5.13
2023-05-06T19:34:57.596Z,5.25
2023-05-06T19:38:00.507Z,4.95
2023-05-06T19:41:04.414Z,5.30
2023-05-06T19:44:07.494Z,4.50
2023-05-06T19:47:10.676Z,5.15
2023-05-06T19:50:13.962Z,4.82
2023-05-06T19:53:17.953Z,4.90
2023-05-06T19:56:21.044Z,5.50
2023-05-06T19:59:24.120Z,4.85
2023-05-06T20:02:27.493Z,5.47
2023-05-06T20:05:31.952Z,5.38
2023-05-06T20:08:35.484Z,5.53
2023-05-06T20:11:38.782Z,5.57
2023-05-06T20:14:41.970Z,5.25
2023-05-06T20:17:45.049Z,5.88
2023-05-06T20:20:48.104Z,4.70
2023-05-06T20:23:51.512Z,4.95
2023-05-06T20:26:56.127Z,5.17
2023-05-06T20:29:59.305Z,5.22
2023-05-06T20:33:02.245Z,5.70
2023-05-06T20:36:06.123Z,5.28
2023-05-06T20:39:12.957Z,5.25
2023-05-06T20:42:15.849Z,5.40
2023-05-06T20:45:19.083Z,5.25
2023-05-06T20:48:22.232Z,6.07
2023-05-06T20:51:27.742Z,5.10
2023-05-06T20:54:30.682Z,5.05
2023-05-06T20:57:33.760Z,4.77
2023-05-06T21:00:37.000Z,4.88
2023-05-06T21:03:40.342Z,5.20
2023-05-06T21:06:43.538Z,4.90
2023-05-06T21:09:46.939Z,5.47
2023-05-06T21:12:50.950Z,4.73
2023-05-06T21:15:54.144Z,5.45
2023-05-06T21:18:57.319Z,5.63
2023-05-06T21:22:00.629Z,4.93
2023-05-06T21:25:07.449Z,5.28
2023-05-06T21:28:10.597Z,5.10
2023-05-06T21:31:13.828Z,5.60
2023-05-06T21:34:17.002Z,5.05
2023-05-06T21:37:20.179Z,5.07
2023-05-06T21:40:27.267Z,5.90
2023-05-06T21:43:31.442Z,5.00
2023-05-06T21:46:38.135Z,4.82
2023-05-06T21:49:41.596Z,5.38
2023-05-06T21:52:44.644Z,5.78
2023-05-06T21:55:48.046Z,5.18
2023-05-06T21:58:52.705Z,5.30
2023-05-06T22:01:56.049Z,4.75
2023-05-06T22:04:59.453Z,5.93
2023-05-06T22:08:02.440Z,6.05
2023-05-06T22:11:05.406Z,5.75
2023-05-06T22:14:09.662Z,5.10
2023-05-06T22:17:12.610Z,5.35
2023-05-06T22:20:15.801Z,5.25
2023-05-06T22:23:21.920Z,5.50
2023-05-06T22:26:26.079Z,5.90
2023-05-06T22:29:29.120Z,6.40
2023-05-06T22:32:34.985Z,5.72
2023-05-06T22:35:37.913Z,5.40
2023-05-06T22:38:43.738Z,5.82
2023-05-06T22:41:48.570Z,5.32
2023-05-06T22:44:51.506Z,5.07
2023-05-06T22:47:54.538Z,5.10
2023-05-06T22:50:58.279Z,4.80
2023-05-06T22:54:01.541Z,5.07
2023-05-06T22:57:04.716Z,5.18
2023-05-06T23:00:08.939Z,4.80
2023-05-06T23:03:12.529Z,4.95
2023-05-06T23:06:15.765Z,5.78
2023-05-06T23:09:18.774Z,5.45
2023-05-06T23:12:22.145Z,5.47
2023-05-06T23:15:25.401Z,5.23
2023-05-06T23:18:28.799Z,5.65
2023-05-06T23:21:32.211Z,6.15
2023-05-06T23:24:35.022Z,5.03
2023-05-06T23:27:39.897Z,5.20
2023-05-06T23:30:43.086Z,5.80
2023-05-06T23:33:46.437Z,5.55
2023-05-06T23:36:49.403Z,6.68
2023-05-06T23:39:53.302Z,5.82
2023-05-06T23:42:56.523Z,5.25
2023-05-06T23:46:00.077Z,5.13
2023-05-06T23:49:04.171Z,6.45
2023-05-06T23:52:08.446Z,6.40
2023-05-06T23:55:12.371Z,6.15
2023-05-06T23:58:15.867Z,5.82
